sensor_id;sensor_type;location;lat;lon;timestamp;pressure;altitude;pressure_sealevel;temperature;humidity
29197;BME280;62796;42.654;23.316;2023-04-01T00:00:44;93695.56;;;14.08;42.14
29197;BME280;62796;42.654;23.316;2023-04-01T00:03:10;93685.94;;;14.09;42.22
29197;BME280;62796;42.654;23.316;2023-04-01T00:05:37;93698.84;;;14.25;41.29
29197;BME280;62796;42.654;23.316;2023-04-01T00:08:02;93680.28;;;14.14;41.36
29197;BME280;62796;42.654;23.316;2023-04-01T00:10:28;93710.63;;;14.36;41.70
29197;BME280;62796;42.654;23.316;2023-04-01T00:12:53;93702.19;;;14.42;41.37
29197;BME280;62796;42.654;23.316;2023-04-01T00:15:19;93694.13;;;14.38;41.85
29197;BME280;62796;42.654;23.316;2023-04-01T00:17:45;93682.22;;;14.19;41.41
29197;BME280;62796;42.654;23.316;2023-04-01T00:20:10;93703.25;;;14.39;41.47
29197;BME280;62796;42.654;23.316;2023-04-01T00:22:36;93708.81;;;14.39;41.44
29197;BME280;62796;42.654;23.316;2023-04-01T00:25:03;93715.56;;;14.25;42.07
29197;BME280;62796;42.654;23.316;2023-04-01T00:27:29;93692.56;;;14.06;42.32
29197;BME280;62796;42.654;23.316;2023-04-01T00:29:54;93693.25;;;14.12;42.26
29197;BME280;62796;42.654;23.316;2023-04-01T00:32:20;93709.88;;;14.17;42.47
29197;BME280;62796;42.654;23.316;2023-04-01T00:34:45;93712.66;;;14.17;42.35
29197;BME280;62796;42.654;23.316;2023-04-01T00:37:11;93708.03;;;14.20;42.40
29197;BME280;62796;42.654;23.316;2023-04-01T00:39:37;93709.09;;;14.17;42.66
29197;BME280;62796;42.654;23.316;2023-04-01T00:42:03;93694.97;;;14.15;42.43
29197;BME280;62796;42.654;23.316;2023-04-01T00:44:32;93682.63;;;14.10;42.65
29197;BME280;62796;42.654;23.316;2023-04-01T00:46:59;93682.50;;;14.03;43.14
29197;BME280;62796;42.654;23.316;2023-04-01T00:49:39;93665.03;;;13.83;43.17
29197;BME280;62796;42.654;23.316;2023-04-01T00:52:08;93687.22;;;13.89;43.12
29197;BME280;62796;42.654;23.316;2023-04-01T00:54:36;93680.94;;;13.89;43.69
29197;BME280;62796;42.654;23.316;2023-04-01T00:57:09;93679.88;;;13.92;43.76
29197;BME280;62796;42.654;23.316;2023-04-01T00:59:54;93673.56;;;13.91;43.85
29197;BME280;62796;42.654;23.316;2023-04-01T01:02:21;93670.75;;;13.91;43.66
29197;BME280;62796;42.654;23.316;2023-04-01T01:04:47;93660.16;;;13.90;43.86
29197;BME280;62796;42.654;23.316;2023-04-01T01:10:26;93650.69;;;13.79;44.00
29197;BME280;62796;42.654;23.316;2023-04-01T01:13:18;93652.94;;;13.81;43.58
29197;BME280;62796;42.654;23.316;2023-04-01T01:15:58;93633.75;;;13.77;43.76
29197;BME280;62796;42.654;23.316;2023-04-01T01:18:47;93636.09;;;13.73;43.84
29197;BME280;62796;42.654;23.316;2023-04-01T01:37:21;93618.81;;;13.62;42.89
29197;BME280;62796;42.654;23.316;2023-04-01T01:39:52;93592.09;;;13.53;42.41
29197;BME280;62796;42.654;23.316;2023-04-01T01:42:20;93613.16;;;13.67;42.48
29197;BME280;62796;42.654;23.316;2023-04-01T01:44:49;93594.38;;;13.55;42.73
29197;BME280;62796;42.654;23.316;2023-04-01T01:47:16;93584.31;;;13.52;42.46
29197;BME280;62796;42.654;23.316;2023-04-01T01:49:44;93607.28;;;13.71;42.34
29197;BME280;62796;42.654;23.316;2023-04-01T01:52:12;93613.31;;;13.75;41.79
29197;BME280;62796;42.654;23.316;2023-04-01T01:54:50;93612.53;;;13.74;41.74
29197;BME280;62796;42.654;23.316;2023-04-01T01:57:17;93596.31;;;13.78;41.31
29197;BME280;62796;42.654;23.316;2023-04-01T01:59:45;93576.81;;;13.78;41.23
29197;BME280;62796;42.654;23.316;2023-04-01T02:02:13;93585.94;;;13.60;41.51
29197;BME280;62796;42.654;23.316;2023-04-01T02:04:42;93592.34;;;13.55;41.97
29197;BME280;62796;42.654;23.316;2023-04-01T02:07:15;93589.69;;;13.63;42.11
29197;BME280;62796;42.654;23.316;2023-04-01T02:09:42;93587.88;;;13.65;41.68
29197;BME280;62796;42.654;23.316;2023-04-01T02:12:11;93564.81;;;13.70;40.31
29197;BME280;62796;42.654;23.316;2023-04-01T02:15:01;93578.09;;;13.77;40.53
29197;BME280;62796;42.654;23.316;2023-04-01T02:17:30;93573.19;;;13.83;40.34
29197;BME280;62796;42.654;23.316;2023-04-01T02:20:00;93564.28;;;13.72;40.35
29197;BME280;62796;42.654;23.316;2023-04-01T02:22:48;93558.84;;;13.79;40.13
29197;BME280;62796;42.654;23.316;2023-04-01T02:25:18;93560.84;;;13.98;40.25
29197;BME280;62796;42.654;23.316;2023-04-01T02:27:46;93574.53;;;13.96;40.27
29197;BME280;62796;42.654;23.316;2023-04-01T02:30:14;93561.84;;;13.81;40.41
29197;BME280;62796;42.654;23.316;2023-04-01T02:32:40;93579.03;;;13.99;39.99
29197;BME280;62796;42.654;23.316;2023-04-01T02:35:09;93581.06;;;13.98;40.03
29197;BME280;62796;42.654;23.316;2023-04-01T02:37:36;93557.59;;;13.94;39.78
29197;BME280;62796;42.654;23.316;2023-04-01T02:40:03;93582.38;;;14.10;40.06
29197;BME280;62796;42.654;23.316;2023-04-01T02:42:30;93584.19;;;14.08;40.56
29197;BME280;62796;42.654;23.316;2023-04-01T02:44:55;93570.69;;;13.99;41.08
29197;BME280;62796;42.654;23.316;2023-04-01T02:47:20;93580.16;;;14.09;41.08
29197;BME280;62796;42.654;23.316;2023-04-01T02:49:46;93580.44;;;14.05;40.64
29197;BME280;62796;42.654;23.316;2023-04-01T02:52:11;93563.47;;;13.90;40.83
29197;BME280;62796;42.654;23.316;2023-04-01T02:54:36;93598.41;;;14.04;40.57
29197;BME280;62796;42.654;23.316;2023-04-01T02:57:02;93601.19;;;13.91;40.93
29197;BME280;62796;42.654;23.316;2023-04-01T02:59:27;93607.03;;;13.88;40.98
29197;BME280;62796;42.654;23.316;2023-04-01T03:01:53;93603.97;;;13.91;41.10
29197;BME280;62796;42.654;23.316;2023-04-01T03:04:18;93618.84;;;13.94;41.26
29197;BME280;62796;42.654;23.316;2023-04-01T03:06:44;93616.53;;;13.98;41.32
29197;BME280;62796;42.654;23.316;2023-04-01T03:09:09;93616.28;;;13.96;41.35
29197;BME280;62796;42.654;23.316;2023-04-01T03:11:35;93599.22;;;13.86;41.40
29197;BME280;62796;42.654;23.316;2023-04-01T03:14:01;93616.72;;;14.00;41.47
29197;BME280;62796;42.654;23.316;2023-04-01T03:16:26;93606.66;;;13.97;41.59
29197;BME280;62796;42.654;23.316;2023-04-01T03:18:52;93616.28;;;13.96;41.39
29197;BME280;62796;42.654;23.316;2023-04-01T03:21:21;93630.75;;;13.94;41.68
29197;BME280;62796;42.654;23.316;2023-04-01T03:23:47;93603.59;;;13.81;42.07
29197;BME280;62796;42.654;23.316;2023-04-01T03:26:13;93626.09;;;13.46;43.62
29197;BME280;62796;42.654;23.316;2023-04-01T03:28:39;93634.97;;;13.26;43.98
29197;BME280;62796;42.654;23.316;2023-04-01T03:31:04;93633.00;;;13.40;44.19
29197;BME280;62796;42.654;23.316;2023-04-01T03:33:30;93621.31;;;13.47;44.63
29197;BME280;62796;42.654;23.316;2023-04-01T03:35:56;93613.00;;;13.41;44.69
29197;BME280;62796;42.654;23.316;2023-04-01T03:38:21;93602.22;;;13.38;44.68
29197;BME280;62796;42.654;23.316;2023-04-01T03:40:47;93582.50;;;13.17;46.71
29197;BME280;62796;42.654;23.316;2023-04-01T03:43:12;93598.72;;;13.50;45.67
29197;BME280;62796;42.654;23.316;2023-04-01T03:45:49;93587.31;;;13.54;45.66
29197;BME280;62796;42.654;23.316;2023-04-01T03:48:15;93571.25;;;13.47;45.16
29197;BME280;62796;42.654;23.316;2023-04-01T03:50:40;93560.16;;;13.41;45.48
29197;BME280;62796;42.654;23.316;2023-04-01T03:53:06;93556.31;;;13.44;45.90
29197;BME280;62796;42.654;23.316;2023-04-01T03:55:31;93542.41;;;13.44;45.43
29197;BME280;62796;42.654;23.316;2023-04-01T03:57:57;93523.28;;;13.41;45.47
29197;BME280;62796;42.654;23.316;2023-04-01T04:00:22;93521.91;;;13.47;45.17
29197;BME280;62796;42.654;23.316;2023-04-01T04:02:48;93504.13;;;13.37;44.90
29197;BME280;62796;42.654;23.316;2023-04-01T04:05:14;93515.72;;;13.54;44.70
29197;BME280;62796;42.654;23.316;2023-04-01T04:07:39;93507.59;;;13.56;45.08
29197;BME280;62796;42.654;23.316;2023-04-01T04:10:05;93503.53;;;13.57;45.23
29197;BME280;62796;42.654;23.316;2023-04-01T04:12:31;93501.22;;;13.61;45.09
29197;BME280;62796;42.654;23.316;2023-04-01T04:14:56;93493.09;;;13.63;45.36
29197;BME280;62796;42.654;23.316;2023-04-01T04:17:22;93495.25;;;13.70;44.29
29197;BME280;62796;42.654;23.316;2023-04-01T04:19:47;93500.47;;;13.74;43.43
29197;BME280;62796;42.654;23.316;2023-04-01T04:22:13;93487.31;;;13.74;43.75
29197;BME280;62796;42.654;23.316;2023-04-01T04:24:38;93484.53;;;13.74;43.79
29197;BME280;62796;42.654;23.316;2023-04-01T04:27:04;93489.69;;;13.70;43.84
29197;BME280;62796;42.654;23.316;2023-04-01T04:29:29;93477.03;;;13.69;44.28
29197;BME280;62796;42.654;23.316;2023-04-01T04:31:55;93475.13;;;13.64;44.33
29197;BME280;62796;42.654;23.316;2023-04-01T04:34:21;93462.03;;;13.59;44.12
29197;BME280;62796;42.654;23.316;2023-04-01T04:36:48;93454.03;;;13.56;43.93
29197;BME280;62796;42.654;23.316;2023-04-01T04:39:15;93465.06;;;13.61;44.12
29197;BME280;62796;42.654;23.316;2023-04-01T04:41:40;93447.94;;;13.39;44.50
29197;BME280;62796;42.654;23.316;2023-04-01T04:44:06;93463.41;;;13.53;44.49
29197;BME280;62796;42.654;23.316;2023-04-01T04:46:32;93430.97;;;13.42;44.84
29197;BME280;62796;42.654;23.316;2023-04-01T04:48:57;93436.34;;;13.53;45.26
29197;BME280;62796;42.654;23.316;2023-04-01T04:51:23;93446.84;;;13.60;44.67
29197;BME280;62796;42.654;23.316;2023-04-01T04:53:49;93446.84;;;13.60;45.01
29197;BME280;62796;42.654;23.316;2023-04-01T04:56:22;93447.72;;;13.68;44.46
29197;BME280;62796;42.654;23.316;2023-04-01T04:58:48;93438.91;;;13.51;44.53
29197;BME280;62796;42.654;23.316;2023-04-01T05:01:15;93440.44;;;13.65;44.36
29197;BME280;62796;42.654;23.316;2023-04-01T05:03:41;93452.53;;;13.68;44.47
29197;BME280;62796;42.654;23.316;2023-04-01T05:06:08;93443.66;;;13.69;44.41
29197;BME280;62796;42.654;23.316;2023-04-01T05:08:33;93431.34;;;13.65;43.82
29197;BME280;62796;42.654;23.316;2023-04-01T05:11:00;93442.16;;;13.68;43.86
29197;BME280;62796;42.654;23.316;2023-04-01T05:13:27;93420.28;;;13.59;43.77
29197;BME280;62796;42.654;23.316;2023-04-01T05:15:52;93420.66;;;13.69;43.81
29197;BME280;62796;42.654;23.316;2023-04-01T05:18:18;93421.72;;;13.66;44.32
29197;BME280;62796;42.654;23.316;2023-04-01T05:20:48;93389.16;;;13.48;44.01
29197;BME280;62796;42.654;23.316;2023-04-01T05:23:14;93408.34;;;13.64;44.12
29197;BME280;62796;42.654;23.316;2023-04-01T05:25:40;93409.72;;;13.71;44.73
29197;BME280;62796;42.654;23.316;2023-04-01T05:28:05;93402.13;;;13.71;44.31
29197;BME280;62796;42.654;23.316;2023-04-01T05:30:30;93376.53;;;13.47;44.42
29197;BME280;62796;42.654;23.316;2023-04-01T05:32:56;93408.34;;;13.64;44.29
29197;BME280;62796;42.654;23.316;2023-04-01T05:35:21;93408.75;;;13.68;44.30
29197;BME280;62796;42.654;23.316;2023-04-01T05:37:47;93403.03;;;13.79;44.78
29197;BME280;62796;42.654;23.316;2023-04-01T05:40:12;93392.31;;;13.97;44.70
29197;BME280;62796;42.654;23.316;2023-04-01T05:42:37;93397.25;;;14.17;44.70
29197;BME280;62796;42.654;23.316;2023-04-01T05:45:03;93384.06;;;14.17;41.63
29197;BME280;62796;42.654;23.316;2023-04-01T05:47:29;93418.88;;;14.24;42.34
29197;BME280;62796;42.654;23.316;2023-04-01T05:49:54;93412.44;;;14.03;43.92
29197;BME280;62796;42.654;23.316;2023-04-01T05:52:20;93381.06;;;14.02;43.31
29197;BME280;62796;42.654;23.316;2023-04-01T05:54:46;93397.03;;;14.54;41.67
29197;BME280;62796;42.654;23.316;2023-04-01T05:57:11;93381.88;;;14.63;40.74
29197;BME280;62796;42.654;23.316;2023-04-01T05:59:36;93362.50;;;14.57;40.12
29197;BME280;62796;42.654;23.316;2023-04-01T06:02:02;93381.69;;;14.94;39.84
29197;BME280;62796;42.654;23.316;2023-04-01T06:04:32;93371.78;;;15.27;39.11
29197;BME280;62796;42.654;23.316;2023-04-01T06:06:59;93383.50;;;15.46;38.78
29197;BME280;62796;42.654;23.316;2023-04-01T06:09:27;93392.25;;;15.71;37.68
29197;BME280;62796;42.654;23.316;2023-04-01T06:22:35;93374.94;;;15.93;36.69
29197;BME280;62796;42.654;23.316;2023-04-01T06:33:18;93370.59;;;16.13;34.96
29197;BME280;62796;42.654;23.316;2023-04-01T06:46:52;93339.34;;;15.58;36.24
29197;BME280;62796;42.654;23.316;2023-04-01T06:55:00;93354.81;;;15.87;36.00
29197;BME280;62796;42.654;23.316;2023-04-01T06:57:47;93330.13;;;15.71;36.48
29197;BME280;62796;42.654;23.316;2023-04-01T07:00:22;93322.59;;;15.37;37.66
29197;BME280;62796;42.654;23.316;2023-04-01T07:03:40;93330.25;;;15.44;37.84
29197;BME280;62796;42.654;23.316;2023-04-01T07:05:46;93314.38;;;15.32;38.02
29197;BME280;62796;42.654;23.316;2023-04-01T07:08:17;93348.06;;;15.55;38.24
29197;BME280;62796;42.654;23.316;2023-04-01T07:11:06;93354.09;;;15.66;38.01
29197;BME280;62796;42.654;23.316;2023-04-01T07:13:41;93304.75;;;15.61;38.15
29197;BME280;62796;42.654;23.316;2023-04-01T07:16:16;93327.78;;;15.82;38.25
29197;BME280;62796;42.654;23.316;2023-04-01T07:18:48;93304.00;;;15.61;39.09
29197;BME280;62796;42.654;23.316;2023-04-01T07:21:22;93322.59;;;15.58;39.31
29197;BME280;62796;42.654;23.316;2023-04-01T07:23:50;93345.84;;;15.40;39.23
29197;BME280;62796;42.654;23.316;2023-04-01T07:26:23;93344.69;;;15.35;39.65
29197;BME280;62796;42.654;23.316;2023-04-01T07:28:51;93341.56;;;15.39;39.88
29197;BME280;62796;42.654;23.316;2023-04-01T07:33:55;93332.09;;;15.42;39.89
29197;BME280;62796;42.654;23.316;2023-04-01T07:45:03;93330.59;;;15.82;39.26
29197;BME280;62796;42.654;23.316;2023-04-01T07:55:30;93330.69;;;15.97;39.93
29197;BME280;62796;42.654;23.316;2023-04-01T08:01:19;93332.22;;;16.06;39.77
29197;BME280;62796;42.654;23.316;2023-04-01T08:04:08;93321.81;;;16.14;39.60
29197;BME280;62796;42.654;23.316;2023-04-01T08:20:03;93295.13;;;16.49;38.90
29197;BME280;62796;42.654;23.316;2023-04-01T08:22:41;93280.31;;;16.54;38.61
29197;BME280;62796;42.654;23.316;2023-04-01T08:25:14;93279.94;;;16.65;38.68
29197;BME280;62796;42.654;23.316;2023-04-01T08:27:49;93261.53;;;16.77;38.84
29197;BME280;62796;42.654;23.316;2023-04-01T08:33:27;93248.25;;;16.55;39.00
29197;BME280;62796;42.654;23.316;2023-04-01T08:38:29;93225.81;;;17.99;36.50
29197;BME280;62796;42.654;23.316;2023-04-01T08:41:13;93223.34;;;18.58;35.55
29197;BME280;62796;42.654;23.316;2023-04-01T08:44:09;93212.69;;;19.13;34.17
29197;BME280;62796;42.654;23.316;2023-04-01T08:50:18;93209.44;;;20.35;32.21
29197;BME280;62796;42.654;23.316;2023-04-01T08:55:40;93215.81;;;19.67;32.26
29197;BME280;62796;42.654;23.316;2023-04-01T08:58:24;93211.69;;;20.02;31.73
29197;BME280;62796;42.654;23.316;2023-04-01T09:04:22;93200.41;;;20.80;30.43
29197;BME280;62796;42.654;23.316;2023-04-01T09:07:03;93209.38;;;20.69;29.46
29197;BME280;62796;42.654;23.316;2023-04-01T09:12:52;93204.56;;;20.01;29.87
29197;BME280;62796;42.654;23.316;2023-04-01T09:15:42;93219.25;;;20.43;29.34
29197;BME280;62796;42.654;23.316;2023-04-01T09:18:28;93212.59;;;20.66;29.43
29197;BME280;62796;42.654;23.316;2023-04-01T09:21:04;93190.63;;;20.55;29.12
29197;BME280;62796;42.654;23.316;2023-04-01T09:29:22;93172.16;;;20.17;29.41
29197;BME280;62796;42.654;23.316;2023-04-01T09:43:16;93152.09;;;20.48;28.15
29197;BME280;62796;42.654;23.316;2023-04-01T09:46:09;93153.31;;;20.81;28.21
29197;BME280;62796;42.654;23.316;2023-04-01T09:51:40;93133.19;;;20.94;27.68
29197;BME280;62796;42.654;23.316;2023-04-01T10:27:47;93072.56;;;23.27;20.83
29197;BME280;62796;42.654;23.316;2023-04-01T10:55:48;93045.31;;;21.80;21.94
29197;BME280;62796;42.654;23.316;2023-04-01T11:15:31;93022.69;;;20.84;24.43
29197;BME280;62796;42.654;23.316;2023-04-01T11:18:47;93032.69;;;20.58;24.58
29197;BME280;62796;42.654;23.316;2023-04-01T11:24:33;93074.16;;;20.67;25.43
29197;BME280;62796;42.654;23.316;2023-04-01T11:43:25;93159.75;;;18.93;32.24
29197;BME280;62796;42.654;23.316;2023-04-01T11:46:31;93180.91;;;18.21;36.34
29197;BME280;62796;42.654;23.316;2023-04-01T11:52:06;93250.31;;;16.62;44.48
29197;BME280;62796;42.654;23.316;2023-04-01T11:54:55;93278.22;;;16.03;50.15
29197;BME280;62796;42.654;23.316;2023-04-01T12:06:20;93299.19;;;15.61;53.02
29197;BME280;62796;42.654;23.316;2023-04-01T12:14:05;93278.31;;;15.62;54.58
29197;BME280;62796;42.654;23.316;2023-04-01T12:19:32;93280.53;;;15.84;55.52
29197;BME280;62796;42.654;23.316;2023-04-01T12:22:12;93268.88;;;16.01;54.90
29197;BME280;62796;42.654;23.316;2023-04-01T12:24:46;93263.34;;;16.09;55.33
29197;BME280;62796;42.654;23.316;2023-04-01T12:35:37;93269.34;;;15.84;54.75
29197;BME280;62796;42.654;23.316;2023-04-01T12:47:04;93283.22;;;15.69;54.00
29197;BME280;62796;42.654;23.316;2023-04-01T12:50:56;93284.75;;;15.78;54.57
29197;BME280;62796;42.654;23.316;2023-04-01T12:55:44;93282.06;;;15.93;53.82
29197;BME280;62796;42.654;23.316;2023-04-01T13:01:35;93274.44;;;15.93;54.06
29197;BME280;62796;42.654;23.316;2023-04-01T13:09:45;93262.16;;;15.96;53.27
29197;BME280;62796;42.654;23.316;2023-04-01T13:15:20;93199.72;;;16.30;55.63
29197;BME280;62796;42.654;23.316;2023-04-01T13:17:59;93194.59;;;17.40;51.04
29197;BME280;62796;42.654;23.316;2023-04-01T13:21:00;93189.41;;;18.39;49.70
29197;BME280;62796;42.654;23.316;2023-04-01T13:26:18;93209.66;;;19.44;45.92
29197;BME280;62796;42.654;23.316;2023-04-01T13:28:56;93199.50;;;20.51;43.33
29197;BME280;62796;42.654;23.316;2023-04-01T13:31:33;93197.03;;;21.18;41.75
29197;BME280;62796;42.654;23.316;2023-04-01T13:42:44;93175.91;;;20.73;39.71
29197;BME280;62796;42.654;23.316;2023-04-01T13:45:19;93161.38;;;20.40;38.88
29197;BME280;62796;42.654;23.316;2023-04-01T13:48:15;93164.31;;;20.60;38.85
29197;BME280;62796;42.654;23.316;2023-04-01T13:56:47;93159.44;;;21.42;37.68
29197;BME280;62796;42.654;23.316;2023-04-01T14:10:10;93121.63;;;19.83;31.99
29197;BME280;62796;42.654;23.316;2023-04-01T14:12:44;93117.09;;;19.70;31.74
29197;BME280;62796;42.654;23.316;2023-04-01T14:15:32;93121.13;;;19.43;33.90
29197;BME280;62796;42.654;23.316;2023-04-01T14:48:38;93093.59;;;17.68;38.24
29197;BME280;62796;42.654;23.316;2023-04-01T14:54:17;93082.94;;;17.66;44.77
29197;BME280;62796;42.654;23.316;2023-04-01T14:59:32;93103.50;;;17.61;45.51
29197;BME280;62796;42.654;23.316;2023-04-01T15:02:25;93095.88;;;17.47;46.74
29197;BME280;62796;42.654;23.316;2023-04-01T15:13:13;93121.28;;;17.34;46.13
29197;BME280;62796;42.654;23.316;2023-04-01T15:18:20;93124.31;;;17.13;46.62
29197;BME280;62796;42.654;23.316;2023-04-01T15:26:26;93115.00;;;17.03;47.43
29197;BME280;62796;42.654;23.316;2023-04-01T15:31:48;93120.06;;;16.74;48.18
29197;BME280;62796;42.654;23.316;2023-04-01T15:39:58;93123.25;;;16.63;49.24
29197;BME280;62796;42.654;23.316;2023-04-01T15:42:49;93122.31;;;16.61;49.38
29197;BME280;62796;42.654;23.316;2023-04-01T15:45:32;93126.41;;;16.59;49.00
29197;BME280;62796;42.654;23.316;2023-04-01T16:07:16;93355.59;;;12.07;55.21
29197;BME280;62796;42.654;23.316;2023-04-01T16:09:59;93384.28;;;11.91;57.07
29197;BME280;62796;42.654;23.316;2023-04-01T16:12:49;93397.88;;;11.71;58.16
29197;BME280;62796;42.654;23.316;2023-04-01T16:23:24;93405.75;;;11.07;60.85
29197;BME280;62796;42.654;23.316;2023-04-01T16:28:53;93402.31;;;11.25;59.80
29197;BME280;62796;42.654;23.316;2023-04-01T16:31:49;93406.06;;;11.28;59.58
29197;BME280;62796;42.654;23.316;2023-04-01T16:37:09;93422.59;;;11.39;58.98
29197;BME280;62796;42.654;23.316;2023-04-01T16:47:46;93420.34;;;11.37;57.55
29197;BME280;62796;42.654;23.316;2023-04-01T16:50:25;93404.44;;;11.08;57.31
29197;BME280;62796;42.654;23.316;2023-04-01T16:53:16;93415.09;;;11.04;57.39
29197;BME280;62796;42.654;23.316;2023-04-01T16:55:52;93420.63;;;11.04;57.85
29197;BME280;62796;42.654;23.316;2023-04-01T16:58:34;93383.28;;;10.81;58.14
29197;BME280;62796;42.654;23.316;2023-04-01T17:01:09;93411.13;;;10.94;58.72
29197;BME280;62796;42.654;23.316;2023-04-01T17:03:44;93408.38;;;10.88;59.19
29197;BME280;62796;42.654;23.316;2023-04-01T17:06:31;93409.91;;;10.89;58.57
29197;BME280;62796;42.654;23.316;2023-04-01T17:31:21;93439.69;;;10.31;58.19
29197;BME280;62796;42.654;23.316;2023-04-01T17:45:25;93461.34;;;10.27;58.27
29197;BME280;62796;42.654;23.316;2023-04-01T17:50:47;93458.31;;;10.25;58.69
29197;BME280;62796;42.654;23.316;2023-04-01T17:53:35;93477.44;;;10.29;58.14
29197;BME280;62796;42.654;23.316;2023-04-01T17:58:50;93477.13;;;10.43;56.94
29197;BME280;62796;42.654;23.316;2023-04-01T18:01:34;93487.69;;;10.45;56.86
29197;BME280;62796;42.654;23.316;2023-04-01T18:04:18;93488.91;;;10.49;56.47
29197;BME280;62796;42.654;23.316;2023-04-01T18:09:37;93500.94;;;10.57;55.45
29197;BME280;62796;42.654;23.316;2023-04-01T18:15:08;93513.81;;;10.55;55.93
29197;BME280;62796;42.654;23.316;2023-04-01T18:22:53;93543.25;;;10.58;55.36
29197;BME280;62796;42.654;23.316;2023-04-01T18:30:32;93545.50;;;10.60;57.31
29197;BME280;62796;42.654;23.316;2023-04-01T18:33:09;93546.72;;;10.70;57.10
29197;BME280;62796;42.654;23.316;2023-04-01T18:38:36;93539.63;;;10.80;56.73
29197;BME280;62796;42.654;23.316;2023-04-01T18:44:03;93532.09;;;10.75;55.82
29197;BME280;62796;42.654;23.316;2023-04-01T18:46:57;93528.34;;;10.67;55.20
29197;BME280;62796;42.654;23.316;2023-04-01T18:49:29;93536.66;;;10.67;54.29
29197;BME280;62796;42.654;23.316;2023-04-01T18:52:07;93531.88;;;10.67;54.35
29197;BME280;62796;42.654;23.316;2023-04-01T18:55:24;93538.66;;;10.72;53.74
29197;BME280;62796;42.654;23.316;2023-04-01T18:58:06;93541.66;;;10.74;53.54
29197;BME280;62796;42.654;23.316;2023-04-01T19:00:43;93544.03;;;10.53;52.52
29197;BME280;62796;42.654;23.316;2023-04-01T19:06:01;93546.75;;;10.59;53.94
29197;BME280;62796;42.654;23.316;2023-04-01T19:08:37;93552.81;;;10.63;53.69
29197;BME280;62796;42.654;23.316;2023-04-01T19:19:17;93580.97;;;10.67;54.04
29197;BME280;62796;42.654;23.316;2023-04-01T19:26:48;93588.97;;;10.76;53.83
29197;BME280;62796;42.654;23.316;2023-04-01T19:29:43;93594.78;;;10.78;53.49
29197;BME280;62796;42.654;23.316;2023-04-01T19:32:36;93604.88;;;10.64;53.60
29197;BME280;62796;42.654;23.316;2023-04-01T19:40:42;93607.09;;;10.82;53.37
29197;BME280;62796;42.654;23.316;2023-04-01T19:43:25;93613.38;;;10.83;53.33
29197;BME280;62796;42.654;23.316;2023-04-01T19:51:15;93605.69;;;10.42;54.19
29197;BME280;62796;42.654;23.316;2023-04-01T19:53:52;93630.34;;;10.51;54.37
29197;BME280;62796;42.654;23.316;2023-04-01T19:56:23;93635.63;;;10.49;54.52
29197;BME280;62796;42.654;23.316;2023-04-01T19:59:19;93629.59;;;10.51;54.63
29197;BME280;62796;42.654;23.316;2023-04-01T20:02:04;93631.09;;;10.52;54.13
29197;BME280;62796;42.654;23.316;2023-04-01T20:04:43;93634.88;;;10.49;52.79
29197;BME280;62796;42.654;23.316;2023-04-01T20:15:22;93612.53;;;9.91;50.81
29197;BME280;62796;42.654;23.316;2023-04-01T20:17:53;93617.81;;;9.73;51.22
29197;BME280;62796;42.654;23.316;2023-04-01T20:20:24;93614.53;;;9.74;51.33
29197;BME280;62796;42.654;23.316;2023-04-01T20:23:04;93614.81;;;9.82;51.03
29197;BME280;62796;42.654;23.316;2023-04-01T20:25:57;93623.84;;;9.88;51.39
29197;BME280;62796;42.654;23.316;2023-04-01T20:28:48;93632.63;;;9.86;51.05
29197;BME280;62796;42.654;23.316;2023-04-01T20:31:24;93624.59;;;10.05;50.89
29197;BME280;62796;42.654;23.316;2023-04-01T20:42:34;93630.84;;;10.55;50.77
29197;BME280;62796;42.654;23.316;2023-04-01T20:45:27;93622.78;;;10.57;50.32
29197;BME280;62796;42.654;23.316;2023-04-01T20:47:59;93622.50;;;10.61;50.09
29197;BME280;62796;42.654;23.316;2023-04-01T20:50:35;93612.97;;;10.45;50.72
29197;BME280;62796;42.654;23.316;2023-04-01T21:20:13;93634.84;;;10.54;48.83
29197;BME280;62796;42.654;23.316;2023-04-01T21:26:04;93650.47;;;10.57;48.68
29197;BME280;62796;42.654;23.316;2023-04-01T21:31:45;93645.69;;;10.52;48.29
29197;BME280;62796;42.654;23.316;2023-04-01T21:45:41;93653.69;;;10.84;47.88
29197;BME280;62796;42.654;23.316;2023-04-01T22:00:18;93634.31;;;10.73;46.89
29197;BME280;62796;42.654;23.316;2023-04-01T22:13:47;93648.66;;;10.77;47.06
29197;BME280;62796;42.654;23.316;2023-04-01T22:18:34;93642.13;;;10.74;47.13
29197;BME280;62796;42.654;23.316;2023-04-01T22:21:12;93637.34;;;10.75;46.71
29197;BME280;62796;42.654;23.316;2023-04-01T22:23:42;93634.56;;;10.75;46.71
29197;BME280;62796;42.654;23.316;2023-04-01T22:28:50;93636.09;;;10.70;46.42
29197;BME280;62796;42.654;23.316;2023-04-01T22:31:22;93633.28;;;10.76;46.57
29197;BME280;62796;42.654;23.316;2023-04-01T22:34:05;93634.28;;;10.84;46.61
29197;BME280;62796;42.654;23.316;2023-04-01T22:36:47;93637.34;;;10.64;45.03
29197;BME280;62796;42.654;23.316;2023-04-01T22:42:23;93642.88;;;10.64;45.89
29197;BME280;62796;42.654;23.316;2023-04-01T22:49:59;93638.91;;;10.53;45.61
29197;BME280;62796;42.654;23.316;2023-04-01T22:52:37;93654.28;;;10.27;45.83
29197;BME280;62796;42.654;23.316;2023-04-01T22:55:12;93663.31;;;10.49;46.02
29197;BME280;62796;42.654;23.316;2023-04-01T22:57:58;93672.59;;;10.57;45.82
29197;BME280;62796;42.654;23.316;2023-04-01T23:00:40;93672.13;;;10.53;45.56
29197;BME280;62796;42.654;23.316;2023-04-01T23:03:15;93679.16;;;10.54;45.92
29197;BME280;62796;42.654;23.316;2023-04-01T23:05:51;93681.41;;;10.67;45.93
29197;BME280;62796;42.654;23.316;2023-04-01T23:08:41;93680.41;;;10.70;45.69
29197;BME280;62796;42.654;23.316;2023-04-01T23:11:21;93653.50;;;10.60;45.56
29197;BME280;62796;42.654;23.316;2023-04-01T23:16:34;93666.03;;;10.77;45.30